createdAt,value
2019-01-29T00:02:04.511Z,94356.52
2019-01-29T00:04:36.377Z,94356.17
2019-01-29T00:07:09.024Z,94364.33
2019-01-29T00:09:41.930Z,94362.70
2019-01-29T00:12:14.651Z,94361.73
2019-01-29T00:14:47.268Z,94358.67
2019-01-29T00:17:19.900Z,94363.11
2019-01-29T00:19:53.979Z,94356.05
2019-01-29T00:22:33.258Z,94355.42
2019-01-29T00:25:01.127Z,94354.11
2019-01-29T00:27:33.755Z,94351.16
2019-01-29T00:30:08.007Z,94349.38
2019-01-29T00:32:40.726Z,94349.72
2019-01-29T00:35:13.819Z,94347.16
2019-01-29T00:37:46.521Z,94353.33
2019-01-29T00:40:19.422Z,94348.67
2019-01-29T00:42:52.157Z,94350.11
2019-01-29T00:45:24.706Z,94359.58
2019-01-29T00:47:57.495Z,94354.42
2019-01-29T00:50:30.219Z,94357.83
2019-01-29T00:53:02.993Z,94366.29
2019-01-29T00:55:35.671Z,94362.83
2019-01-29T00:58:08.486Z,94370.36
2019-01-29T01:00:41.155Z,94367.64
2019-01-29T01:03:13.818Z,94364.95
2019-01-29T01:05:46.691Z,94375.83
2019-01-29T01:08:19.265Z,94379.36
2019-01-29T01:10:51.856Z,94384.30
2019-01-29T01:13:24.481Z,94387.51
2019-01-29T01:15:57.174Z,94383.23
2019-01-29T01:18:29.812Z,94383.42
2019-01-29T01:21:02.531Z,94398.02
2019-01-29T01:23:35.235Z,94387.14
2019-01-29T01:26:07.905Z,94394.98
2019-01-29T01:28:40.583Z,94393.86
2019-01-29T01:31:13.251Z,94402.36
2019-01-29T01:33:45.760Z,94399.02
2019-01-29T01:36:18.498Z,94399.14
2019-01-29T01:38:51.198Z,94404.73
2019-01-29T01:41:23.830Z,94406.98
2019-01-29T01:43:56.536Z,94407.98
2019-01-29T01:46:29.186Z,94409.39
2019-01-29T01:49:04.646Z,94417.58
2019-01-29T01:51:37.291Z,94408.77
2019-01-29T01:54:09.990Z,94412.77
2019-01-29T01:56:42.638Z,94417.89
2019-01-29T01:59:15.267Z,94412.11
2019-01-29T02:01:47.954Z,94413.74
2019-01-29T02:04:20.613Z,94418.95
2019-01-29T02:06:53.178Z,94415.68
2019-01-29T02:09:26.998Z,94414.86
2019-01-29T02:11:59.661Z,94426.49
2019-01-29T02:14:32.293Z,94430.48
2019-01-29T02:17:05.153Z,94428.08
2019-01-29T02:19:38.218Z,94439.66
2019-01-29T02:22:11.286Z,94438.02
2019-01-29T02:24:43.995Z,94440.72
2019-01-29T02:27:16.745Z,94436.83
2019-01-29T02:29:49.377Z,94427.31
2019-01-29T02:32:22.042Z,94422.95
2019-01-29T02:34:54.580Z,94433.09
2019-01-29T02:37:27.172Z,94421.22
2019-01-29T02:39:59.927Z,94427.85
2019-01-29T02:42:32.824Z,94423.64
2019-01-29T02:45:08.029Z,94426.11
2019-01-29T02:47:40.600Z,94433.62
2019-01-29T02:50:14.174Z,94424.95
2019-01-29T02:52:46.815Z,94429.14
2019-01-29T02:55:19.439Z,94427.27
2019-01-29T02:57:52.118Z,94421.19
2019-01-29T03:00:28.459Z,94421.41
2019-01-29T03:03:01.069Z,94430.15
2019-01-29T03:05:33.757Z,94430.11
2019-01-29T03:08:06.448Z,94436.95
2019-01-29T03:10:39.117Z,94432.84
2019-01-29T03:13:11.825Z,94433.41
2019-01-29T03:15:44.701Z,94433.11
2019-01-29T03:18:17.440Z,94434.84
2019-01-29T03:20:50.204Z,94438.35
2019-01-29T03:23:27.422Z,94436.20
2019-01-29T03:25:58.527Z,94436.23
2019-01-29T03:28:31.112Z,94434.69
2019-01-29T03:31:03.760Z,94429.19
2019-01-29T03:33:36.571Z,94435.79
2019-01-29T03:36:09.388Z,94449.83
2019-01-29T03:38:42.021Z,94446.47
2019-01-29T03:41:14.690Z,94451.77
2019-01-29T03:43:47.393Z,94455.93
2019-01-29T03:46:20.162Z,94457.20
2019-01-29T03:48:52.779Z,94464.19
2019-01-29T03:51:25.415Z,94464.19
2019-01-29T03:53:57.978Z,94465.25
2019-01-29T03:56:30.643Z,94474.65
2019-01-29T03:59:03.390Z,94467.47
2019-01-29T04:01:35.235Z,94465.67
2019-01-29T04:04:07.981Z,94468.61
2019-01-29T04:06:40.579Z,94479.14
2019-01-29T04:09:13.686Z,94471.46
2019-01-29T04:11:46.321Z,94475.91
2019-01-29T04:14:18.987Z,94477.41
2019-01-29T04:16:51.725Z,94477.08
2019-01-29T04:19:25.502Z,94484.29
2019-01-29T04:21:58.121Z,94485.30
2019-01-29T04:24:30.739Z,94486.52
2019-01-29T04:27:03.390Z,94476.91
2019-01-29T04:29:36.050Z,94472.19
2019-01-29T04:32:08.916Z,94475.55
2019-01-29T04:34:41.532Z,94482.74
2019-01-29T04:37:14.189Z,94480.41
2019-01-29T04:39:46.975Z,94481.03
2019-01-29T04:42:19.616Z,94478.22
2019-01-29T04:44:52.386Z,94481.02
2019-01-29T04:47:25.031Z,94479.55
2019-01-29T04:49:57.278Z,94474.79
2019-01-29T04:52:29.873Z,94481.05
2019-01-29T04:55:02.501Z,94482.72
2019-01-29T04:57:35.130Z,94481.97
2019-01-29T05:00:20.437Z,94474.36
2019-01-29T05:02:53.126Z,94472.52
2019-01-29T05:05:26.020Z,94473.64
2019-01-29T05:07:58.595Z,94466.81
2019-01-29T05:10:31.370Z,94464.18
2019-01-29T05:13:04.149Z,94468.41
2019-01-29T05:15:36.803Z,94464.98
2019-01-29T05:18:09.428Z,94469.56
2019-01-29T05:20:42.140Z,94466.66
2019-01-29T05:23:14.804Z,94474.96
2019-01-29T05:25:47.409Z,94482.28
2019-01-29T05:28:20.160Z,94480.88
2019-01-29T05:30:52.716Z,94481.96
2019-01-29T05:33:25.483Z,94482.47
2019-01-29T05:35:58.049Z,94477.94
2019-01-29T05:38:30.744Z,94477.61
2019-01-29T05:41:03.383Z,94475.06
2019-01-29T05:43:36.060Z,94475.45
2019-01-29T05:46:08.767Z,94480.09
2019-01-29T05:48:41.382Z,94476.54
2019-01-29T05:51:14.109Z,94479.67
2019-01-29T05:53:46.762Z,94472.41
2019-01-29T05:56:20.666Z,94468.69
2019-01-29T05:58:53.493Z,94473.69
2019-01-29T06:01:26.052Z,94474.24
2019-01-29T06:03:58.723Z,94471.95
2019-01-29T06:06:31.278Z,94476.17
2019-01-29T06:09:05.684Z,94465.67
2019-01-29T06:11:38.396Z,94468.77
2019-01-29T06:14:11.091Z,94474.29
2019-01-29T06:16:43.844Z,94473.92
2019-01-29T06:19:16.525Z,94470.09
2019-01-29T06:21:49.149Z,94465.35
2019-01-29T06:24:25.805Z,94478.83
2019-01-29T06:26:56.107Z,94473.34
2019-01-29T06:29:28.786Z,94475.83
2019-01-29T06:32:01.465Z,94472.52
2019-01-29T06:34:34.350Z,94472.97
2019-01-29T06:37:07.109Z,94482.09
2019-01-29T06:39:39.772Z,94473.14
2019-01-29T06:42:12.618Z,94472.62
2019-01-29T06:44:45.437Z,94472.47
2019-01-29T06:47:18.505Z,94472.02
2019-01-29T06:49:51.149Z,94473.58
2019-01-29T06:52:23.740Z,94474.48
2019-01-29T06:54:56.417Z,94477.13
2019-01-29T06:57:29.002Z,94473.53
2019-01-29T07:00:01.633Z,94471.49
2019-01-29T07:02:34.233Z,94461.50
2019-01-29T07:05:08.450Z,94459.32
2019-01-29T07:07:41.414Z,94457.93
2019-01-29T07:10:20.030Z,94454.73
2019-01-29T07:12:52.770Z,94442.97
2019-01-29T07:15:44.659Z,94434.95
2019-01-29T07:18:37.090Z,94444.58
2019-01-29T07:21:10.688Z,94450.73
2019-01-29T07:23:43.460Z,94454.89
2019-01-29T07:26:16.185Z,94453.84
2019-01-29T07:28:48.916Z,94458.91
2019-01-29T07:31:21.568Z,94452.27
2019-01-29T07:33:56.962Z,94443.45
2019-01-29T07:36:29.568Z,94453.62
2019-01-29T07:39:02.218Z,94463.41
2019-01-29T07:41:35.075Z,94464.31
2019-01-29T07:44:07.787Z,94457.84
2019-01-29T07:46:40.405Z,94452.38
2019-01-29T07:49:13.068Z,94460.30
2019-01-29T07:51:45.670Z,94457.52
2019-01-29T07:54:18.525Z,94466.27
2019-01-29T07:56:51.126Z,94462.21
2019-01-29T07:59:32.483Z,94456.31
2019-01-29T08:01:58.070Z,94460.91
2019-01-29T08:04:30.753Z,94459.18
2019-01-29T08:07:03.346Z,94460.67
2019-01-29T08:09:35.983Z,94457.12
2019-01-29T08:12:08.647Z,94455.47
2019-01-29T08:14:41.252Z,94450.20
2019-01-29T08:17:13.947Z,94447.28
2019-01-29T08:19:46.592Z,94438.17
2019-01-29T08:22:19.242Z,94437.03
2019-01-29T08:25:01.230Z,94428.55
2019-01-29T08:27:26.232Z,94429.52
2019-01-29T08:29:58.876Z,94433.00
2019-01-29T08:32:31.466Z,94428.95
2019-01-29T08:35:05.155Z,94421.89
2019-01-29T08:37:39.733Z,94411.70
2019-01-29T08:40:13.506Z,94419.15
2019-01-29T08:42:46.274Z,94415.21
2019-01-29T08:45:19.216Z,94405.98
2019-01-29T08:47:51.795Z,94410.69
2019-01-29T08:50:24.968Z,94397.94
2019-01-29T08:52:57.612Z,94396.38
2019-01-29T08:55:30.280Z,94392.16
2019-01-29T08:58:02.827Z,94385.34
2019-01-29T09:00:35.670Z,94386.84
2019-01-29T09:03:08.292Z,94389.81
2019-01-29T09:05:40.966Z,94385.71
2019-01-29T09:08:13.771Z,94377.31
2019-01-29T09:10:45.926Z,94375.17
2019-01-29T09:13:18.503Z,94365.36
2019-01-29T09:15:51.138Z,94358.49
2019-01-29T09:18:23.804Z,94352.52
2019-01-29T09:20:56.387Z,94362.09
2019-01-29T09:23:29.109Z,94346.27
2019-01-29T09:26:01.817Z,94347.05
2019-01-29T09:28:34.523Z,94347.70
2019-01-29T09:31:09.954Z,94342.49
2019-01-29T09:33:42.588Z,94339.52
2019-01-29T09:36:15.204Z,94344.81
2019-01-29T09:38:47.961Z,94341.31
2019-01-29T09:41:20.677Z,94333.77
2019-01-29T09:43:53.362Z,94336.55
2019-01-29T09:46:26.032Z,94322.23
2019-01-29T09:48:58.667Z,94316.99
2019-01-29T09:51:31.470Z,94318.55
2019-01-29T09:54:04.265Z,94319.81
2019-01-29T09:56:38.115Z,94316.83
2019-01-29T09:59:11.101Z,94300.95
2019-01-29T10:01:43.898Z,94305.07
2019-01-29T10:04:16.663Z,94308.53
2019-01-29T10:06:49.400Z,94307.48
2019-01-29T10:09:22.194Z,94304.33
2019-01-29T10:11:55.006Z,94310.60
2019-01-29T10:14:27.771Z,94305.72
2019-01-29T10:17:00.435Z,94306.75
2019-01-29T10:19:33.149Z,94306.95
2019-01-29T10:22:06.003Z,94298.19
2019-01-29T10:24:38.652Z,94302.00
2019-01-29T10:27:11.274Z,94297.39
2019-01-29T10:29:43.898Z,94284.16
2019-01-29T10:32:16.115Z,94277.48
2019-01-29T10:34:48.707Z,94266.38
2019-01-29T10:37:21.336Z,94265.84
2019-01-29T10:39:54.126Z,94252.05
2019-01-29T10:42:26.952Z,94244.66
2019-01-29T10:44:59.661Z,94239.80
2019-01-29T10:47:32.436Z,94233.06
2019-01-29T10:50:07.685Z,94227.48
2019-01-29T10:52:40.809Z,94227.42
2019-01-29T10:55:13.749Z,94211.24
2019-01-29T10:57:47.154Z,94208.92
2019-01-29T11:00:24.535Z,94201.43
2019-01-29T11:02:57.326Z,94194.20
2019-01-29T11:05:30.138Z,94182.38
2019-01-29T11:08:02.888Z,94178.61
2019-01-29T11:10:35.669Z,94165.80
2019-01-29T11:13:08.712Z,94165.21
2019-01-29T11:15:43.277Z,94155.39
2019-01-29T11:18:18.043Z,94149.34
2019-01-29T11:20:50.873Z,94137.85
2019-01-29T11:23:23.587Z,94140.45
2019-01-29T11:25:56.397Z,94130.69
2019-01-29T11:28:29.124Z,94125.88
2019-01-29T11:31:01.827Z,94124.02
2019-01-29T11:33:34.560Z,94112.52
2019-01-29T11:36:07.848Z,94112.61
2019-01-29T11:38:40.645Z,94100.67
2019-01-29T11:41:13.395Z,94098.02
2019-01-29T11:43:46.094Z,94092.00
2019-01-29T11:46:18.870Z,94090.91
2019-01-29T11:48:51.623Z,94080.55
2019-01-29T11:51:24.376Z,94077.12
2019-01-29T11:53:57.088Z,94076.84
2019-01-29T11:56:29.740Z,94075.11
2019-01-29T11:59:02.675Z,94069.98
2019-01-29T12:01:35.399Z,94064.36
2019-01-29T12:04:08.493Z,94070.72
2019-01-29T12:06:41.150Z,94062.13
2019-01-29T12:09:13.981Z,94065.64
2019-01-29T12:11:46.645Z,94058.40
2019-01-29T12:14:19.302Z,94059.98
2019-01-29T12:16:52.007Z,94049.88
2019-01-29T12:19:24.732Z,94042.70
2019-01-29T12:21:57.415Z,94039.56
2019-01-29T12:24:30.125Z,94040.28
2019-01-29T12:27:02.777Z,94028.84
2019-01-29T12:29:35.412Z,94028.66
2019-01-29T12:32:08.204Z,94028.78
2019-01-29T12:34:40.974Z,94015.06
2019-01-29T12:37:13.699Z,94020.23
2019-01-29T12:39:46.374Z,94011.98
2019-01-29T12:42:19.011Z,94010.27
2019-01-29T12:44:51.678Z,94007.59
2019-01-29T12:47:24.883Z,93992.61
2019-01-29T12:49:57.486Z,93993.01
2019-01-29T12:52:48.959Z,93986.28
2019-01-29T12:55:21.637Z,93987.36
2019-01-29T12:57:54.332Z,93976.45
2019-01-29T13:00:29.645Z,93973.66
2019-01-29T13:03:02.398Z,93964.45
2019-01-29T13:05:35.205Z,93955.77
2019-01-29T13:08:10.036Z,93956.06
2019-01-29T13:10:42.795Z,93954.81
2019-01-29T13:13:16.003Z,93953.50
2019-01-29T13:15:48.813Z,93954.39
2019-01-29T13:18:21.586Z,93947.35
2019-01-29T13:20:54.324Z,93936.58
2019-01-29T13:23:27.045Z,93939.63
2019-01-29T13:25:59.802Z,93929.21
2019-01-29T13:28:32.465Z,93931.82
2019-01-29T13:31:05.261Z,93929.53
2019-01-29T13:33:37.860Z,93926.50
2019-01-29T13:36:10.704Z,93921.22
2019-01-29T13:38:43.366Z,93915.23
2019-01-29T13:41:16.097Z,93913.44
2019-01-29T13:43:48.897Z,93911.73
2019-01-29T13:46:21.642Z,93909.44
2019-01-29T13:48:54.209Z,93915.70
2019-01-29T13:51:26.907Z,93906.47
2019-01-29T13:53:59.518Z,93904.67
2019-01-29T13:56:38.772Z,93890.34
2019-01-29T13:59:06.645Z,93890.86
2019-01-29T14:01:39.233Z,93883.85
2019-01-29T14:04:12.043Z,93879.14
2019-01-29T14:06:44.652Z,93883.52
2019-01-29T14:09:17.302Z,93877.86
2019-01-29T14:11:49.998Z,93876.03
2019-01-29T14:14:22.599Z,93862.78
2019-01-29T14:16:55.184Z,93857.78
2019-01-29T14:19:27.803Z,93855.42
2019-01-29T14:22:00.386Z,93852.80
2019-01-29T14:24:34.253Z,93845.30
2019-01-29T14:27:06.804Z,93842.94
2019-01-29T14:29:39.525Z,93837.29
2019-01-29T14:32:12.108Z,93838.13
2019-01-29T14:34:44.971Z,93831.39
2019-01-29T14:37:17.724Z,93826.58
2019-01-29T14:40:20.595Z,93826.64
2019-01-29T14:42:53.211Z,93816.02
2019-01-29T14:45:27.848Z,93810.83
2019-01-29T14:48:00.535Z,93819.46
2019-01-29T14:50:33.853Z,93813.83
2019-01-29T14:53:06.447Z,93817.88
2019-01-29T14:55:39.144Z,93804.32
2019-01-29T14:58:11.905Z,93802.85
2019-01-29T15:00:45.407Z,93800.12
2019-01-29T15:03:18.038Z,93791.95
2019-01-29T15:05:50.836Z,93793.11
2019-01-29T15:08:23.481Z,93783.72
2019-01-29T15:10:56.128Z,93781.94
2019-01-29T15:13:28.763Z,93774.08
2019-01-29T15:16:09.047Z,93771.38
2019-01-29T15:18:46.767Z,93772.70
2019-01-29T15:21:19.364Z,93767.25
2019-01-29T15:23:51.920Z,93762.03
2019-01-29T15:26:24.589Z,93759.10
2019-01-29T15:28:57.164Z,93753.47
2019-01-29T15:31:29.921Z,93742.67
2019-01-29T15:34:02.554Z,93745.89
2019-01-29T15:36:35.277Z,93747.19
2019-01-29T15:39:10.589Z,93728.11
2019-01-29T15:41:43.392Z,93727.48
2019-01-29T15:44:16.172Z,93723.20
2019-01-29T15:46:48.874Z,93720.18
2019-01-29T15:49:21.619Z,93708.67
2019-01-29T15:51:54.326Z,93706.75
2019-01-29T15:54:27.160Z,93701.33
2019-01-29T15:56:59.899Z,93694.02
2019-01-29T15:59:32.635Z,93693.41
2019-01-29T16:02:05.807Z,93684.83
2019-01-29T16:04:38.472Z,93681.83
2019-01-29T16:07:11.199Z,93668.89
2019-01-29T16:09:43.833Z,93674.66
2019-01-29T16:12:16.867Z,93662.68
2019-01-29T16:14:49.539Z,93663.48
2019-01-29T16:17:22.397Z,93655.80
2019-01-29T16:19:55.058Z,93646.88
2019-01-29T16:22:27.775Z,93642.55
2019-01-29T16:25:00.417Z,93645.59
2019-01-29T16:27:33.155Z,93633.16
2019-01-29T16:30:07.784Z,93632.66
2019-01-29T16:32:39.680Z,93629.00
2019-01-29T16:35:15.532Z,93616.86
2019-01-29T16:37:48.298Z,93615.27
2019-01-29T16:40:22.593Z,93610.30
2019-01-29T16:42:56.632Z,93609.05
2019-01-29T16:45:32.463Z,93601.70
2019-01-29T16:48:05.838Z,93599.16
2019-01-29T16:50:38.768Z,93595.17
2019-01-29T16:53:11.764Z,93592.92
2019-01-29T16:55:44.462Z,93592.44
2019-01-29T16:58:17.121Z,93580.97
2019-01-29T17:00:49.871Z,93584.31
2019-01-29T17:03:22.591Z,93588.77
2019-01-29T17:05:55.335Z,93576.31
2019-01-29T17:08:27.896Z,93574.72
2019-01-29T17:11:00.583Z,93566.11
2019-01-29T17:13:33.276Z,93569.33
2019-01-29T17:16:06.252Z,93558.30
2019-01-29T17:18:38.881Z,93557.17
2019-01-29T17:21:11.517Z,93553.05
2019-01-29T17:23:44.171Z,93541.09
2019-01-29T17:26:19.660Z,93542.67
2019-01-29T17:28:52.383Z,93539.02
2019-01-29T17:31:25.203Z,93527.81
2019-01-29T17:33:57.937Z,93526.73
2019-01-29T17:36:30.628Z,93525.92
2019-01-29T17:39:03.397Z,93526.73
2019-01-29T17:41:36.082Z,93518.92
2019-01-29T17:44:08.888Z,93520.20
2019-01-29T17:46:41.652Z,93517.96
2019-01-29T17:49:14.266Z,93511.91
2019-01-29T17:51:46.893Z,93501.23
2019-01-29T17:54:19.563Z,93506.02
2019-01-29T17:56:52.206Z,93498.51
2019-01-29T17:59:24.880Z,93488.00
2019-01-29T18:01:57.715Z,93493.42
2019-01-29T18:04:30.342Z,93492.45
2019-01-29T18:07:03.091Z,93487.62
2019-01-29T18:09:35.741Z,93473.45
2019-01-29T18:12:08.421Z,93486.98
2019-01-29T18:14:41.102Z,93479.30
2019-01-29T18:17:13.698Z,93478.34
2019-01-29T18:19:46.389Z,93471.95
2019-01-29T18:22:19.278Z,93463.36
2019-01-29T18:24:51.842Z,93470.56
2019-01-29T18:27:24.550Z,93469.86
2019-01-29T18:29:57.263Z,93466.52
2019-01-29T18:32:29.978Z,93462.89
2019-01-29T18:35:02.569Z,93455.91
2019-01-29T18:37:35.201Z,93448.85
2019-01-29T18:40:10.083Z,93443.88
2019-01-29T18:42:42.924Z,93443.83
2019-01-29T18:45:16.246Z,93437.81
2019-01-29T18:47:49.071Z,93433.81
2019-01-29T18:50:22.412Z,93420.91
2019-01-29T18:52:55.189Z,93431.00
2019-01-29T18:55:27.853Z,93420.38
2019-01-29T18:58:00.500Z,93415.89
2019-01-29T19:00:33.162Z,93410.53
2019-01-29T19:03:05.949Z,93404.48
2019-01-29T19:05:38.555Z,93414.03
2019-01-29T19:08:11.257Z,93411.14
2019-01-29T19:10:43.937Z,93406.85
2019-01-29T19:13:16.535Z,93394.77
2019-01-29T19:15:49.201Z,93383.08
2019-01-29T19:18:21.929Z,93379.29
2019-01-29T19:20:55.191Z,93382.25
2019-01-29T19:23:27.988Z,93377.05
2019-01-29T19:26:00.722Z,93376.11
2019-01-29T19:28:33.468Z,93368.63
2019-01-29T19:31:06.180Z,93365.42
2019-01-29T19:33:38.869Z,93362.73
2019-01-29T19:36:11.849Z,93349.03
2019-01-29T19:38:44.563Z,93350.46
2019-01-29T19:41:17.261Z,93344.11
2019-01-29T19:43:49.482Z,93353.95
2019-01-29T19:46:22.393Z,93356.17
2019-01-29T19:48:55.132Z,93339.83
2019-01-29T19:51:27.902Z,93334.31
2019-01-29T19:54:00.556Z,93320.81
2019-01-29T19:56:34.067Z,93320.96
2019-01-29T19:59:07.473Z,93311.18
2019-01-29T20:01:40.411Z,93309.45
2019-01-29T20:04:13.291Z,93289.67
2019-01-29T20:06:46.006Z,93287.30
2019-01-29T20:09:18.789Z,93286.40
2019-01-29T20:11:51.631Z,93271.16
2019-01-29T20:14:24.354Z,93265.55
2019-01-29T20:16:56.994Z,93260.88
2019-01-29T20:19:29.717Z,93252.47
2019-01-29T20:22:02.361Z,93252.95
2019-01-29T20:24:35.136Z,93248.67
2019-01-29T20:27:07.755Z,93246.35
2019-01-29T20:29:40.377Z,93238.41
2019-01-29T20:32:12.571Z,93229.13
2019-01-29T20:34:45.129Z,93226.64
2019-01-29T20:37:17.863Z,93228.48
2019-01-29T20:39:50.540Z,93226.53
2019-01-29T20:42:23.235Z,93215.91
2019-01-29T20:44:55.843Z,93211.64
2019-01-29T20:47:28.521Z,93203.84
2019-01-29T20:50:01.194Z,93200.38
2019-01-29T20:52:35.248Z,93196.31
2019-01-29T20:55:11.609Z,93186.44
2019-01-29T20:57:43.350Z,93191.94
2019-01-29T21:00:31.562Z,93192.89
2019-01-29T21:03:04.535Z,93192.05
2019-01-29T21:05:37.527Z,93207.27
2019-01-29T21:08:10.219Z,93199.99
2019-01-29T21:10:42.871Z,93196.80
2019-01-29T21:13:15.552Z,93194.50
2019-01-29T21:15:48.228Z,93186.44
2019-01-29T21:18:20.950Z,93187.20
2019-01-29T21:20:57.097Z,93175.66
2019-01-29T21:23:28.284Z,93178.75
2019-01-29T21:26:00.979Z,93175.89
2019-01-29T21:28:33.688Z,93165.34
2019-01-29T21:31:06.539Z,93158.82
2019-01-29T21:33:39.186Z,93147.80
2019-01-29T21:36:11.920Z,93146.48
2019-01-29T21:38:46.829Z,93139.95
2019-01-29T21:41:19.430Z,93143.13
2019-01-29T21:43:52.013Z,93127.17
2019-01-29T21:46:24.730Z,93128.89
2019-01-29T21:48:57.328Z,93113.59
2019-01-29T21:51:29.959Z,93104.65
2019-01-29T21:54:02.582Z,93100.92
2019-01-29T21:56:35.257Z,93095.43
2019-01-29T21:59:13.398Z,93089.22
2019-01-29T22:01:42.314Z,93099.46
2019-01-29T22:04:15.088Z,93099.23
2019-01-29T22:06:47.645Z,93107.59
2019-01-29T22:09:20.245Z,93111.81
2019-01-29T22:11:52.941Z,93106.18
2019-01-29T22:14:25.682Z,93114.24
2019-01-29T22:16:58.263Z,93119.80
2019-01-29T22:19:31.021Z,93121.45
2019-01-29T22:22:03.635Z,93115.76
2019-01-29T22:24:36.240Z,93101.75
2019-01-29T22:27:09.025Z,93096.44
2019-01-29T22:29:41.668Z,93093.16
2019-01-29T22:32:14.452Z,93084.30
2019-01-29T22:34:47.098Z,93079.67
2019-01-29T22:37:19.740Z,93075.55
2019-01-29T22:39:52.553Z,93071.24
2019-01-29T22:42:28.049Z,93075.53
2019-01-29T22:45:00.734Z,93063.41
2019-01-29T22:47:33.312Z,93051.05
2019-01-29T22:50:09.444Z,93034.13
2019-01-29T22:52:42.131Z,93030.30
2019-01-29T22:55:14.896Z,93024.00
2019-01-29T22:57:49.179Z,93017.77
2019-01-29T23:00:51.108Z,93009.53
2019-01-29T23:03:30.508Z,92990.86
2019-01-29T23:06:23.702Z,92993.17
2019-01-29T23:08:56.416Z,92984.09
2019-01-29T23:11:29.032Z,92972.52
2019-01-29T23:14:01.719Z,92971.75
2019-01-29T23:16:34.489Z,92960.62
2019-01-29T23:19:07.611Z,92948.90
2019-01-29T23:21:40.205Z,92928.08
2019-01-29T23:24:12.844Z,92938.64
2019-01-29T23:26:45.553Z,92922.16
2019-01-29T23:29:18.150Z,92931.12
2019-01-29T23:31:50.799Z,92931.56
2019-01-29T23:34:23.372Z,92920.53
2019-01-29T23:36:56.035Z,92918.19
2019-01-29T23:39:28.578Z,92918.75
2019-01-29T23:42:01.230Z,92910.45
2019-01-29T23:44:34.057Z,92908.69
2019-01-29T23:47:06.694Z,92875.74
2019-01-29T23:49:39.299Z,92889.77
2019-01-29T23:52:11.992Z,92886.52
2019-01-29T23:54:44.571Z,92884.77
2019-01-29T23:57:17.329Z,92885.51
2019-01-29T23:59:53.769Z,92866.87
